Time;durP1;ratioP1;P1;durP2;ratioP2;P2;SDS_P1;SDS_P2;PMS_P1;PMS_P2;Temp;Humidity;BMP_temperature;BMP_pressure;BME280_temperature;BME280_humidity;BME280_pressure;Samples;Min_cycle;Max_cycle;Signal;HPM_P1;HPM_P2
2022/10/01 00:00:34;;;;;;;3.13;2.72;;;;;;;;;;5017377;28;20459;-81
2022/10/01 00:03:00;;;;;;;4.72;2.75;;;;;;;;;;5017280;28;20037;-81
2022/10/01 00:05:25;;;;;;;5.47;2.80;;;;;;;;;;4984256;28;20506;-81
2022/10/01 00:07:50;;;;;;;3.20;2.60;;;;;;;;;;5017268;28;20041;-81
2022/10/01 00:10:16;;;;;;;3.58;2.55;;;;;;;;;;5016957;28;20483;-81
2022/10/01 00:12:46;;;;;;;3.63;2.60;;;;;;;;;;5015797;28;20037;-81
2022/10/01 00:15:14;;;;;;;5.38;2.63;;;;;;;;;;4998501;28;20045;-80
2022/10/01 00:17:39;;;;;;;3.17;2.40;;;;;;;;;;4999728;28;20026;-81
2022/10/01 00:20:05;;;;;;;4.78;2.35;;;;;;;;;;5016971;28;20033;-81
2022/10/01 00:22:33;;;;;;;3.30;2.33;;;;;;;;;;4999537;28;20710;-81
2022/10/01 00:24:59;;;;;;;2.88;2.35;;;;;;;;;;5015970;28;20029;-81
2022/10/01 00:27:25;;;;;;;2.97;2.38;;;;;;;;;;5017150;28;20029;-81
2022/10/01 00:29:51;;;;;;;2.95;2.25;;;;;;;;;;4998784;28;20111;-81
2022/10/01 00:32:17;;;;;;;3.70;2.40;;;;;;;;;;5016314;28;20527;-81
2022/10/01 00:34:42;;;;;;;3.88;2.40;;;;;;;;;;5016216;28;20038;-81
2022/10/01 00:37:09;;;;;;;3.08;2.05;;;;;;;;;;5016715;28;20068;-81
2022/10/01 00:39:35;;;;;;;3.53;2.10;;;;;;;;;;5016584;28;20038;-81
2022/10/01 00:42:02;;;;;;;3.00;2.20;;;;;;;;;;5017127;28;20038;-81
2022/10/01 00:44:34;;;;;;;3.47;2.00;;;;;;;;;;4998223;28;20045;-81
2022/10/01 00:47:18;;;;;;;3.38;2.20;;;;;;;;;;5015957;28;20513;-81
2022/10/01 00:49:45;;;;;;;3.33;2.03;;;;;;;;;;5016549;28;20025;-81
2022/10/01 00:52:15;;;;;;;2.88;1.95;;;;;;;;;;4998500;28;20042;-81
2022/10/01 00:54:45;;;;;;;3.53;2.05;;;;;;;;;;4997813;28;20038;-81
2022/10/01 00:57:15;;;;;;;3.45;2.15;;;;;;;;;;4998456;28;20605;-80
2022/10/01 00:59:42;;;;;;;5.88;2.42;;;;;;;;;;5016100;28;20465;-80
2022/10/01 01:02:07;;;;;;;6.30;2.70;;;;;;;;;;5016319;28;20029;-80
2022/10/01 01:04:32;;;;;;;5.50;3.00;;;;;;;;;;4981663;28;20410;-80
2022/10/01 01:07:03;;;;;;;5.60;2.60;;;;;;;;;;5015611;28;20044;-82
2022/10/01 01:09:33;;;;;;;5.03;2.70;;;;;;;;;;5015822;28;20042;-83
2022/10/01 01:12:23;;;;;;;5.25;2.80;;;;;;;;;;5014683;28;20046;-83
2022/10/01 01:15:45;;;;;;;3.53;3.10;;;;;;;;;;5015076;28;20052;-82
2022/10/01 01:18:24;;;;;;;4.70;3.38;;;;;;;;;;4919530;29;20028;-82
2022/10/01 01:21:05;;;;;;;4.90;2.90;;;;;;;;;;4935871;29;20039;-82
2022/10/01 01:23:58;;;;;;;4.50;2.90;;;;;;;;;;4997423;28;20060;-82
2022/10/01 01:26:32;;;;;;;5.28;3.25;;;;;;;;;;5015483;28;20058;-82
2022/10/01 01:29:05;;;;;;;5.80;3.50;;;;;;;;;;5015978;28;20034;-82
2022/10/01 01:31:36;;;;;;;6.03;4.13;;;;;;;;;;5015542;28;20041;-81
2022/10/01 01:34:07;;;;;;;4.07;3.22;;;;;;;;;;4997330;28;20056;-80
2022/10/01 01:36:36;;;;;;;5.40;2.80;;;;;;;;;;5015670;28;20041;-82
2022/10/01 01:39:06;;;;;;;4.75;3.30;;;;;;;;;;5015000;28;20065;-81
2022/10/01 01:41:36;;;;;;;4.28;3.20;;;;;;;;;;5014583;28;20030;-81
2022/10/01 01:44:07;;;;;;;4.13;3.17;;;;;;;;;;5014734;28;20402;-81
2022/10/01 01:46:36;;;;;;;8.10;3.55;;;;;;;;;;5016210;28;20033;-81
2022/10/01 01:49:04;;;;;;;3.90;3.30;;;;;;;;;;5015367;28;20041;-81
2022/10/01 01:51:51;;;;;;;4.38;3.22;;;;;;;;;;5015219;28;20402;-81
2022/10/01 01:54:18;;;;;;;5.82;3.00;;;;;;;;;;5014457;28;20045;-81
2022/10/01 01:56:45;;;;;;;6.82;3.70;;;;;;;;;;5015229;28;20453;-81
2022/10/01 01:59:12;;;;;;;5.38;3.20;;;;;;;;;;5014796;28;20104;-81
2022/10/01 02:01:42;;;;;;;4.57;3.25;;;;;;;;;;5015324;28;20068;-82
2022/10/01 02:04:13;;;;;;;4.72;3.50;;;;;;;;;;5014709;28;20487;-81
2022/10/01 02:06:48;;;;;;;4.70;3.72;;;;;;;;;;5015155;28;20034;-81
2022/10/01 02:09:34;;;;;;;5.68;3.55;;;;;;;;;;5015054;28;20053;-81
2022/10/01 02:12:30;;;;;;;4.75;3.50;;;;;;;;;;5000126;28;20038;-81
2022/10/01 02:15:08;;;;;;;5.63;3.83;;;;;;;;;;5014499;28;20045;-81
2022/10/01 02:17:52;;;;;;;7.05;3.83;;;;;;;;;;5014914;28;20022;-81
2022/10/01 02:20:24;;;;;;;7.47;3.45;;;;;;;;;;4997389;28;20030;-81
2022/10/01 02:22:57;;;;;;;4.30;3.60;;;;;;;;;;5014722;28;20030;-81
2022/10/01 02:25:25;;;;;;;6.65;3.28;;;;;;;;;;5014505;28;20041;-81
2022/10/01 02:27:59;;;;;;;4.15;2.75;;;;;;;;;;4996774;28;20034;-82
2022/10/01 02:30:26;;;;;;;3.65;2.40;;;;;;;;;;5014699;28;20018;-81
2022/10/01 02:32:55;;;;;;;3.65;2.20;;;;;;;;;;5014621;28;20037;-81
2022/10/01 02:35:21;;;;;;;3.60;2.30;;;;;;;;;;5014132;28;20116;-81
2022/10/01 02:37:50;;;;;;;4.20;2.08;;;;;;;;;;4996730;28;20124;-81
2022/10/01 02:40:20;;;;;;;3.75;1.92;;;;;;;;;;5014913;28;20490;-80
2022/10/01 02:42:49;;;;;;;2.80;2.00;;;;;;;;;;5014658;28;20061;-82
2022/10/01 02:45:23;;;;;;;5.68;2.72;;;;;;;;;;5014261;28;20390;-81
2022/10/01 02:47:57;;;;;;;2.85;2.00;;;;;;;;;;5014302;28;20034;-81
2022/10/01 02:50:27;;;;;;;2.75;1.90;;;;;;;;;;4999875;28;20410;-81
2022/10/01 02:53:05;;;;;;;2.55;1.90;;;;;;;;;;4994812;28;20080;-81
2022/10/01 02:55:36;;;;;;;2.53;2.03;;;;;;;;;;4994874;28;20056;-81
2022/10/01 02:58:02;;;;;;;3.22;1.90;;;;;;;;;;4995114;28;20584;-80
2022/10/01 03:00:28;;;;;;;3.63;1.98;;;;;;;;;;4994937;28;20037;-81
2022/10/01 03:02:54;;;;;;;4.05;1.98;;;;;;;;;;4994841;28;20041;-81
2022/10/01 03:05:20;;;;;;;4.43;1.88;;;;;;;;;;4993797;28;20515;-80
2022/10/01 03:07:46;;;;;;;2.47;1.70;;;;;;;;;;4977478;28;20253;-80
2022/10/01 03:10:13;;;;;;;2.83;1.90;;;;;;;;;;4994743;28;20034;-81
2022/10/01 03:12:45;;;;;;;3.00;2.08;;;;;;;;;;4995937;28;20040;-82
2022/10/01 03:15:17;;;;;;;2.45;1.95;;;;;;;;;;4997648;28;20561;-82
2022/10/01 03:17:42;;;;;;;3.72;2.63;;;;;;;;;;4980936;28;20117;-82
2022/10/01 03:20:08;;;;;;;2.63;2.10;;;;;;;;;;4998418;28;20054;-82
2022/10/01 03:22:33;;;;;;;3.88;2.85;;;;;;;;;;4980728;28;20038;-82
2022/10/01 03:24:59;;;;;;;3.17;2.60;;;;;;;;;;4997539;28;20114;-82
2022/10/01 03:27:24;;;;;;;9.68;3.80;;;;;;;;;;4980597;28;20612;-82
2022/10/01 03:29:50;;;;;;;4.03;3.53;;;;;;;;;;4997734;28;20121;-81
2022/10/01 03:32:16;;;;;;;7.88;4.80;;;;;;;;;;4998491;28;20050;-81
2022/10/01 03:34:42;;;;;;;6.75;4.38;;;;;;;;;;4997772;28;20541;-81
2022/10/01 03:37:08;;;;;;;9.48;5.10;;;;;;;;;;4980663;28;20015;-82
2022/10/01 03:39:34;;;;;;;6.45;5.30;;;;;;;;;;4998356;28;20042;-81
2022/10/01 03:42:01;;;;;;;7.53;4.90;;;;;;;;;;4980089;28;20049;-80
2022/10/01 03:44:27;;;;;;;8.52;5.18;;;;;;;;;;4979339;28;20086;-81
2022/10/01 03:46:53;;;;;;;7.25;4.80;;;;;;;;;;4997891;28;20396;-82
2022/10/01 03:49:19;;;;;;;5.60;4.70;;;;;;;;;;4998108;28;20039;-81
2022/10/01 03:51:44;;;;;;;7.10;4.60;;;;;;;;;;4998055;28;20121;-81
2022/10/01 03:54:10;;;;;;;7.57;4.82;;;;;;;;;;4979952;28;20311;-81
2022/10/01 03:56:37;;;;;;;7.05;5.30;;;;;;;;;;4998045;28;20035;-81
2022/10/01 03:59:02;;;;;;;7.57;4.85;;;;;;;;;;4997565;28;20034;-80
2022/10/01 04:01:29;;;;;;;5.50;4.28;;;;;;;;;;4979665;28;20041;-81
2022/10/01 04:03:55;;;;;;;4.13;3.60;;;;;;;;;;4997325;28;20058;-78
2022/10/01 04:06:20;;;;;;;4.57;3.38;;;;;;;;;;4997097;28;20533;-81
2022/10/01 04:08:46;;;;;;;3.92;3.40;;;;;;;;;;4997636;28;20131;-81
2022/10/01 04:11:11;;;;;;;5.28;3.30;;;;;;;;;;4996274;28;20034;-81
2022/10/01 04:13:37;;;;;;;6.05;2.90;;;;;;;;;;4979726;28;20514;-81
2022/10/01 04:16:04;;;;;;;4.20;2.85;;;;;;;;;;4996929;28;20041;-80
2022/10/01 04:18:30;;;;;;;4.05;2.28;;;;;;;;;;4979552;28;20152;-80
2022/10/01 04:20:56;;;;;;;3.95;2.50;;;;;;;;;;4997264;28;20053;-81
2022/10/01 04:23:22;;;;;;;3.75;2.80;;;;;;;;;;4997356;28;20078;-81
2022/10/01 04:25:48;;;;;;;4.53;3.10;;;;;;;;;;4996456;28;20121;-80
2022/10/01 04:28:14;;;;;;;4.35;3.17;;;;;;;;;;4979890;28;20042;-81
2022/10/01 04:30:41;;;;;;;3.80;2.80;;;;;;;;;;4997042;28;20039;-81
2022/10/01 04:33:11;;;;;;;3.75;2.83;;;;;;;;;;4997046;28;20038;-81
2022/10/01 04:35:36;;;;;;;3.80;2.78;;;;;;;;;;4996065;28;20045;-80
2022/10/01 04:38:11;;;;;;;5.95;2.90;;;;;;;;;;4996892;28;20042;-79
2022/10/01 04:40:37;;;;;;;3.17;2.58;;;;;;;;;;4997219;28;20622;-81
2022/10/01 04:43:04;;;;;;;3.72;2.63;;;;;;;;;;4979636;28;20038;-81
2022/10/01 04:45:30;;;;;;;5.20;2.67;;;;;;;;;;4996412;28;20046;-80
2022/10/01 04:47:57;;;;;;;3.88;2.58;;;;;;;;;;4996626;28;20085;-81
2022/10/01 04:50:24;;;;;;;3.60;2.63;;;;;;;;;;4979239;28;20038;-81
2022/10/01 04:52:50;;;;;;;3.53;2.47;;;;;;;;;;4996875;28;20052;-81
2022/10/01 04:55:17;;;;;;;4.85;2.55;;;;;;;;;;4995930;28;20045;-81
2022/10/01 04:57:43;;;;;;;7.10;2.42;;;;;;;;;;4996116;28;20072;-81
2022/10/01 05:00:12;;;;;;;3.13;2.20;;;;;;;;;;4979234;28;20102;-81
2022/10/01 05:02:38;;;;;;;3.33;2.00;;;;;;;;;;4979063;28;20038;-81
2022/10/01 05:05:06;;;;;;;4.43;2.25;;;;;;;;;;4996136;28;20382;-80
2022/10/01 05:07:33;;;;;;;3.08;2.17;;;;;;;;;;4996281;28;20772;-81
2022/10/01 05:09:59;;;;;;;2.60;2.15;;;;;;;;;;4996427;28;20066;-82
2022/10/01 05:12:25;;;;;;;2.85;2.28;;;;;;;;;;4994936;28;20030;-82
2022/10/01 05:14:52;;;;;;;7.60;4.78;;;;;;;;;;4995262;28;20034;-81
2022/10/01 05:17:18;;;;;;;10.75;5.57;;;;;;;;;;4978463;28;20033;-82
2022/10/01 05:19:45;;;;;;;5.20;2.70;;;;;;;;;;4996104;28;20058;-82
2022/10/01 05:22:11;;;;;;;3.67;2.10;;;;;;;;;;4995617;28;20041;-82
2022/10/01 05:24:36;;;;;;;4.40;2.20;;;;;;;;;;4995394;28;20034;-82
2022/10/01 05:27:02;;;;;;;3.20;2.50;;;;;;;;;;4996022;28;20487;-82
2022/10/01 05:29:27;;;;;;;4.63;3.30;;;;;;;;;;4995979;28;20034;-81
2022/10/01 05:31:53;;;;;;;4.47;2.90;;;;;;;;;;4995935;28;20096;-81
2022/10/01 05:34:19;;;;;;;5.00;2.22;;;;;;;;;;4993960;28;20042;-81
2022/10/01 05:36:44;;;;;;;4.43;2.45;;;;;;;;;;4996101;28;20026;-81
2022/10/01 05:39:10;;;;;;;8.50;5.05;;;;;;;;;;4995678;28;20042;-80
2022/10/01 05:41:37;;;;;;;23.23;16.42;;;;;;;;;;4995868;28;20034;-81
2022/10/01 05:44:02;;;;;;;7.95;6.25;;;;;;;;;;4994979;28;20076;-81
2022/10/01 05:46:27;;;;;;;6.13;3.72;;;;;;;;;;4995483;28;20070;-81
2022/10/01 05:48:53;;;;;;;4.63;3.13;;;;;;;;;;4995319;28;20045;-80
2022/10/01 05:51:18;;;;;;;5.50;2.97;;;;;;;;;;4995183;28;20046;-80
2022/10/01 05:53:47;;;;;;;7.93;3.50;;;;;;;;;;4978119;28;20146;-81
2022/10/01 05:56:13;;;;;;;8.45;5.03;;;;;;;;;;4994929;28;20038;-82
2022/10/01 05:58:38;;;;;;;7.55;4.70;;;;;;;;;;4995234;28;20042;-82
2022/10/01 06:01:04;;;;;;;7.93;3.97;;;;;;;;;;4995174;28;20034;-82
2022/10/01 06:03:30;;;;;;;5.10;3.60;;;;;;;;;;4995228;28;20450;-82
2022/10/01 06:05:55;;;;;;;8.52;3.25;;;;;;;;;;4994615;28;20038;-82
2022/10/01 06:08:21;;;;;;;7.43;3.08;;;;;;;;;;4995012;28;20061;-82
2022/10/01 06:10:48;;;;;;;6.65;3.28;;;;;;;;;;4995232;28;20108;-82
2022/10/01 06:13:16;;;;;;;6.57;2.90;;;;;;;;;;4976384;28;20046;-82
2022/10/01 06:15:43;;;;;;;4.90;3.10;;;;;;;;;;5007109;28;20038;-81
2022/10/01 06:18:10;;;;;;;4.45;2.88;;;;;;;;;;5015126;28;20029;-82
2022/10/01 06:20:36;;;;;;;6.15;3.00;;;;;;;;;;4997303;28;20030;-81
2022/10/01 06:23:04;;;;;;;4.50;3.10;;;;;;;;;;5014897;28;20026;-80
2022/10/01 06:25:30;;;;;;;3.65;2.95;;;;;;;;;;5013972;28;20041;-80
2022/10/01 06:27:58;;;;;;;5.05;2.80;;;;;;;;;;5014873;28;20034;-82
2022/10/01 06:30:30;;;;;;;10.05;2.30;;;;;;;;;;5014896;28;20529;-81
2022/10/01 06:33:01;;;;;;;3.50;2.60;;;;;;;;;;5014832;28;20148;-81
2022/10/01 06:35:27;;;;;;;3.50;2.80;;;;;;;;;;5014230;28;20041;-80
2022/10/01 06:37:53;;;;;;;3.60;2.95;;;;;;;;;;5014772;28;20045;-81
2022/10/01 06:40:18;;;;;;;4.07;2.92;;;;;;;;;;5014444;28;20034;-82
2022/10/01 06:42:48;;;;;;;6.60;3.28;;;;;;;;;;4997414;28;20086;-81
2022/10/01 06:45:15;;;;;;;4.78;3.20;;;;;;;;;;5014838;28;20176;-81
2022/10/01 06:47:40;;;;;;;5.25;3.25;;;;;;;;;;5000651;28;20041;-81
2022/10/01 06:50:06;;;;;;;4.05;3.03;;;;;;;;;;5018650;28;20040;-81
2022/10/01 06:52:49;;;;;;;3.88;3.30;;;;;;;;;;5018606;28;20064;-81
2022/10/01 06:55:17;;;;;;;4.80;3.30;;;;;;;;;;5018139;28;20025;-81
2022/10/01 06:57:42;;;;;;;4.30;3.35;;;;;;;;;;5018830;28;20104;-81
2022/10/01 07:00:08;;;;;;;4.13;3.22;;;;;;;;;;5018356;28;20315;-81
2022/10/01 07:02:34;;;;;;;3.95;2.95;;;;;;;;;;5000825;28;20026;-82
2022/10/01 07:05:00;;;;;;;4.28;3.05;;;;;;;;;;5017779;28;20041;-83
2022/10/01 07:07:29;;;;;;;5.35;3.00;;;;;;;;;;5018281;28;20492;-83
2022/10/01 07:09:56;;;;;;;4.22;3.42;;;;;;;;;;5018311;28;20030;-83
2022/10/01 07:12:21;;;;;;;6.13;3.00;;;;;;;;;;5016202;28;20091;-83
2022/10/01 07:14:47;;;;;;;4.35;2.70;;;;;;;;;;5017254;28;20034;-83
2022/10/01 07:17:12;;;;;;;4.20;2.25;;;;;;;;;;5001765;28;20127;-84
2022/10/01 07:19:38;;;;;;;5.40;2.40;;;;;;;;;;5002671;28;20048;-82
2022/10/01 07:22:03;;;;;;;3.45;2.10;;;;;;;;;;5017805;28;20038;-81
2022/10/01 07:24:29;;;;;;;3.90;2.15;;;;;;;;;;5010129;28;20041;-82
2022/10/01 07:26:54;;;;;;;4.72;2.05;;;;;;;;;;5009902;28;20037;-83
2022/10/01 07:29:23;;;;;;;3.97;1.92;;;;;;;;;;5018723;28;20037;-83
2022/10/01 07:31:54;;;;;;;2.08;1.58;;;;;;;;;;5018216;28;20026;-83
2022/10/01 07:34:23;;;;;;;2.00;1.67;;;;;;;;;;5018975;28;20041;-84
2022/10/01 07:36:49;;;;;;;2.22;1.80;;;;;;;;;;5019345;28;20069;-84
2022/10/01 07:39:14;;;;;;;2.25;1.80;;;;;;;;;;5017925;28;20034;-84
2022/10/01 07:41:41;;;;;;;2.28;1.55;;;;;;;;;;5017656;28;20029;-83
2022/10/01 07:44:07;;;;;;;3.25;1.60;;;;;;;;;;5016426;28;20049;-83
2022/10/01 07:46:32;;;;;;;2.97;1.60;;;;;;;;;;5020102;28;20034;-83
2022/10/01 07:48:58;;;;;;;2.28;1.48;;;;;;;;;;5018382;28;20040;-85
2022/10/01 07:51:25;;;;;;;2.60;1.40;;;;;;;;;;5017873;28;20397;-84
2022/10/01 07:53:51;;;;;;;1.58;1.20;;;;;;;;;;5002927;28;20034;-83
2022/10/01 07:56:16;;;;;;;2.08;1.48;;;;;;;;;;5010407;28;20375;-84
2022/10/01 07:58:42;;;;;;;1.70;1.30;;;;;;;;;;5014712;28;20521;-84
2022/10/01 08:01:08;;;;;;;2.55;1.50;;;;;;;;;;4988663;28;20030;-83
2022/10/01 08:03:34;;;;;;;1.83;1.38;;;;;;;;;;5009203;28;20133;-83
2022/10/01 08:06:02;;;;;;;2.53;1.50;;;;;;;;;;5017594;28;20486;-83
2022/10/01 08:08:29;;;;;;;1.90;1.55;;;;;;;;;;5018065;28;20072;-83
2022/10/01 08:10:55;;;;;;;2.30;1.55;;;;;;;;;;5000432;28;20088;-83
2022/10/01 08:13:23;;;;;;;2.17;1.50;;;;;;;;;;5015790;28;20045;-84
2022/10/01 08:15:52;;;;;;;1.95;1.58;;;;;;;;;;5016675;28;20070;-84
2022/10/01 08:18:18;;;;;;;3.45;1.40;;;;;;;;;;5016770;28;20125;-83
2022/10/01 08:20:45;;;;;;;1.70;1.30;;;;;;;;;;5017119;28;20061;-82
2022/10/01 08:23:15;;;;;;;2.15;1.52;;;;;;;;;;5016782;28;20411;-83
2022/10/01 08:25:42;;;;;;;2.95;1.40;;;;;;;;;;5015668;28;20218;-84
2022/10/01 08:28:10;;;;;;;1.70;1.40;;;;;;;;;;4999589;28;20505;-85
2022/10/01 08:30:38;;;;;;;3.15;2.20;;;;;;;;;;4982806;28;20040;-84
2022/10/01 08:33:04;;;;;;;2.25;1.60;;;;;;;;;;5016631;28;20032;-84
2022/10/01 08:35:30;;;;;;;2.15;1.45;;;;;;;;;;4998122;28;20132;-85
2022/10/01 08:38:05;;;;;;;1.75;1.38;;;;;;;;;;4998507;28;20092;-84
2022/10/01 08:40:41;;;;;;;1.40;1.20;;;;;;;;;;4982527;28;20125;-84
2022/10/01 08:43:26;;;;;;;2.08;1.48;;;;;;;;;;5016369;28;20029;-84
2022/10/01 08:45:56;;;;;;;2.15;1.38;;;;;;;;;;4981291;28;20037;-84
2022/10/01 08:48:44;;;;;;;2.50;1.20;;;;;;;;;;4982514;28;20037;-85
2022/10/01 08:51:28;;;;;;;3.28;1.30;;;;;;;;;;5015930;28;20639;-85
2022/10/01 08:54:12;;;;;;;;;;;;;;;;;;5016362;28;20038;-85
2022/10/01 08:56:45;;;;;;;2.70;1.23;;;;;;;;;;4982630;28;20293;-84
2022/10/01 08:59:42;;;;;;;2.35;1.30;;;;;;;;;;4982234;28;20076;-85
2022/10/01 09:02:27;;;;;;;3.58;1.40;;;;;;;;;;5016090;28;20037;-85
2022/10/01 09:05:03;;;;;;;3.92;1.45;;;;;;;;;;4982592;28;20513;-85
2022/10/01 09:07:53;;;;;;;4.20;1.80;;;;;;;;;;4982457;28;20529;-85
2022/10/01 09:10:31;;;;;;;7.10;2.40;;;;;;;;;;4997913;28;20030;-86
2022/10/01 09:13:18;;;;;;;4.95;2.20;;;;;;;;;;4997704;28;20124;-85
2022/10/01 09:15:56;;;;;;;6.00;1.98;;;;;;;;;;4982132;28;20434;-85
2022/10/01 09:18:52;;;;;;;5.80;1.77;;;;;;;;;;4998994;28;20049;-85
2022/10/01 09:21:24;;;;;;;5.32;2.10;;;;;;;;;;5016746;28;20036;-85
2022/10/01 09:24:03;;;;;;;5.10;1.90;;;;;;;;;;4998487;28;20113;-83
2022/10/01 09:26:28;;;;;;;4.55;1.60;;;;;;;;;;5016762;28;20037;-85
2022/10/01 09:28:54;;;;;;;2.38;1.48;;;;;;;;;;5016311;28;20029;-85
2022/10/01 09:31:39;;;;;;;2.03;1.20;;;;;;;;;;4998943;28;20041;-85
2022/10/01 09:34:28;;;;;;;5.47;1.80;;;;;;;;;;5015351;28;20041;-85
2022/10/01 09:37:04;;;;;;;4.72;1.70;;;;;;;;;;5016164;28;20030;-84
2022/10/01 09:39:51;;;;;;;3.80;1.30;;;;;;;;;;4982434;28;20128;-84
2022/10/01 09:42:17;;;;;;;4.82;2.20;;;;;;;;;;4998572;28;20044;-85
2022/10/01 09:44:43;;;;;;;3.05;1.65;;;;;;;;;;5014928;28;20089;-84
2022/10/01 09:47:21;;;;;;;6.40;1.90;;;;;;;;;;4982370;28;20034;-85
2022/10/01 09:49:48;;;;;;;6.60;2.08;;;;;;;;;;4982342;28;20087;-85
2022/10/01 09:52:25;;;;;;;5.70;1.67;;;;;;;;;;4966345;28;20038;-85
2022/10/01 09:54:57;;;;;;;5.78;2.65;;;;;;;;;;4997891;28;20076;-85
2022/10/01 09:57:39;;;;;;;4.30;1.65;;;;;;;;;;5015997;28;20482;-84
2022/10/01 10:00:10;;;;;;;2.67;1.58;;;;;;;;;;5014551;28;20072;-84
2022/10/01 10:02:38;;;;;;;4.13;1.33;;;;;;;;;;5014790;28;20407;-84
2022/10/01 10:05:07;;;;;;;4.18;1.75;;;;;;;;;;4980093;28;20041;-84
2022/10/01 10:07:34;;;;;;;2.97;1.50;;;;;;;;;;4981091;28;20041;-83
2022/10/01 10:10:26;;;;;;;3.00;1.63;;;;;;;;;;4997254;28;20414;-86
2022/10/01 10:12:59;;;;;;;2.58;1.80;;;;;;;;;;4979550;28;20149;-85
2022/10/01 10:15:26;;;;;;;3.63;2.60;;;;;;;;;;4997151;28;20033;-85
2022/10/01 10:17:54;;;;;;;2.55;1.90;;;;;;;;;;4981504;28;20029;-85
2022/10/01 10:20:28;;;;;;;2.67;1.98;;;;;;;;;;4998621;28;20037;-86
2022/10/01 10:23:08;;;;;;;5.13;2.10;;;;;;;;;;4998733;28;20510;-84
2022/10/01 10:25:34;;;;;;;2.33;1.90;;;;;;;;;;4982537;28;20410;-86
2022/10/01 10:28:01;;;;;;;4.75;2.40;;;;;;;;;;4998550;28;20561;-86
2022/10/01 10:30:27;;;;;;;2.58;1.95;;;;;;;;;;4997488;28;20034;-86
2022/10/01 10:33:03;;;;;;;4.32;2.60;;;;;;;;;;4981909;28;20490;-86
2022/10/01 10:35:30;;;;;;;4.07;2.58;;;;;;;;;;4997744;28;20109;-86
2022/10/01 10:37:57;;;;;;;4.10;2.78;;;;;;;;;;4983096;28;20133;-84
2022/10/01 10:40:24;;;;;;;2.20;1.80;;;;;;;;;;4997379;28;20038;-84
2022/10/01 10:42:52;;;;;;;2.53;1.90;;;;;;;;;;4980752;28;20041;-85
2022/10/01 10:45:21;;;;;;;3.20;1.90;;;;;;;;;;4996235;28;20606;-85
2022/10/01 10:47:51;;;;;;;2.35;1.70;;;;;;;;;;4996772;28;20045;-84
2022/10/01 10:50:39;;;;;;;2.20;1.88;;;;;;;;;;5014119;28;20435;-84
2022/10/01 10:53:43;;;;;;;2.67;1.90;;;;;;;;;;5000946;28;20045;-84
2022/10/01 10:56:19;;;;;;;2.35;1.70;;;;;;;;;;4964567;28;20046;-84
2022/10/01 10:58:45;;;;;;;2.92;2.00;;;;;;;;;;4960310;28;20034;-84
2022/10/01 11:01:16;;;;;;;3.90;1.90;;;;;;;;;;4976664;28;20039;-85
2022/10/01 11:03:46;;;;;;;3.22;2.00;;;;;;;;;;4961111;28;20096;-85
2022/10/01 11:06:13;;;;;;;4.30;1.92;;;;;;;;;;4976120;28;20399;-85
2022/10/01 11:08:41;;;;;;;2.65;2.00;;;;;;;;;;4994272;28;20043;-85
2022/10/01 11:11:35;;;;;;;4.25;2.00;;;;;;;;;;4975140;28;20034;-85
2022/10/01 11:14:46;;;;;;;2.08;1.70;;;;;;;;;;4975496;28;20042;-83
2022/10/01 11:17:23;;;;;;;4.50;3.67;;;;;;;;;;4959663;28;20388;-84
2022/10/01 11:20:06;;;;;;;3.88;3.08;;;;;;;;;;4976849;28;20125;-83
2022/10/01 11:22:44;;;;;;;3.22;2.40;;;;;;;;;;4976669;28;20042;-83
2022/10/01 11:25:13;;;;;;;3.75;2.28;;;;;;;;;;4959539;28;20034;-85
2022/10/01 11:28:14;;;;;;;3.88;2.80;;;;;;;;;;4960167;28;20499;-84
2022/10/01 11:30:46;;;;;;;6.47;2.30;;;;;;;;;;4976967;28;20523;-83
2022/10/01 11:33:22;;;;;;;2.55;2.08;;;;;;;;;;4977884;28;20077;-83
2022/10/01 11:36:04;;;;;;;2.63;1.90;;;;;;;;;;4978928;28;20038;-84
2022/10/01 11:38:48;;;;;;;3.15;2.20;;;;;;;;;;4980364;28;20084;-83
2022/10/01 11:41:33;;;;;;;2.75;2.38;;;;;;;;;;4963587;28;20038;-84
2022/10/01 11:44:07;;;;;;;4.63;2.40;;;;;;;;;;4962965;28;20129;-84
2022/10/01 11:46:44;;;;;;;3.60;2.60;;;;;;;;;;4996715;28;20131;-83
2022/10/01 11:49:22;;;;;;;3.03;2.70;;;;;;;;;;4979488;28;20487;-84
2022/10/01 11:51:54;;;;;;;5.78;2.75;;;;;;;;;;4963425;28;20030;-83
2022/10/01 11:54:24;;;;;;;3.50;2.55;;;;;;;;;;4996994;28;20108;-84
2022/10/01 11:59:48;;;;;;;4.88;2.17;;;;;;;;;;5001756;28;20037;-83
2022/10/01 12:02:50;;;;;;;5.03;2.40;;;;;;;;;;4998685;28;20037;-84
2022/10/01 12:05:19;;;;;;;3.05;2.53;;;;;;;;;;4981124;28;20054;-83
2022/10/01 12:07:48;;;;;;;4.80;2.67;;;;;;;;;;4998739;28;20038;-83
2022/10/01 12:10:37;;;;;;;7.43;4.43;;;;;;;;;;4998992;28;20034;-83
2022/10/01 12:13:15;;;;;;;6.95;4.03;;;;;;;;;;4996940;28;20505;-83
2022/10/01 12:15:46;;;;;;;5.18;3.47;;;;;;;;;;5015787;28;20034;-83
2022/10/01 12:18:39;;;;;;;5.65;3.25;;;;;;;;;;4981811;28;20030;-83
2022/10/01 12:21:11;;;;;;;3.97;2.70;;;;;;;;;;4968407;28;20045;-83
2022/10/01 12:23:53;;;;;;;3.10;2.25;;;;;;;;;;4982399;28;20084;-82
2022/10/01 12:26:57;;;;;;;4.93;2.65;;;;;;;;;;4997855;28;20521;-83
2022/10/01 12:29:48;;;;;;;2.75;2.20;;;;;;;;;;4904134;29;20123;-83
2022/10/01 12:32:29;;;;;;;3.45;2.22;;;;;;;;;;4996287;28;20112;-84
2022/10/01 12:35:24;;;;;;;2.90;2.10;;;;;;;;;;4997450;28;20038;-84
2022/10/01 12:38:24;;;;;;;2.60;2.13;;;;;;;;;;5015735;28;20052;-82
2022/10/01 12:41:03;;;;;;;3.85;2.13;;;;;;;;;;5015947;28;20042;-82
2022/10/01 12:43:34;;;;;;;3.95;2.40;;;;;;;;;;5015066;28;20034;-83
2022/10/01 12:46:12;;;;;;;4.03;2.55;;;;;;;;;;4981525;28;20392;-84
2022/10/01 12:49:02;;;;;;;5.63;2.58;;;;;;;;;;4982007;28;20383;-82
2022/10/01 12:51:43;;;;;;;4.30;2.35;;;;;;;;;;4982498;28;20117;-82
2022/10/01 12:54:33;;;;;;;3.08;2.55;;;;;;;;;;4981763;28;20045;-82
2022/10/01 12:57:12;;;;;;;7.10;3.70;;;;;;;;;;4998152;28;20486;-83
2022/10/01 12:59:46;;;;;;;3.45;2.65;;;;;;;;;;5015947;28;20125;-84
2022/10/01 13:02:46;;;;;;;3.83;3.08;;;;;;;;;;5015691;28;20038;-83
2022/10/01 13:05:26;;;;;;;15.82;6.43;;;;;;;;;;5014943;28;20488;-83
2022/10/01 13:08:05;;;;;;;10.68;4.50;;;;;;;;;;4997986;28;20041;-84
2022/10/01 13:10:43;;;;;;;5.80;2.80;;;;;;;;;;5015751;28;20037;-83
2022/10/01 13:13:26;;;;;;;3.65;2.53;;;;;;;;;;5014345;28;20030;-82
2022/10/01 13:16:20;;;;;;;4.38;3.10;;;;;;;;;;5015004;28;20041;-82
2022/10/01 13:18:56;;;;;;;4.63;3.10;;;;;;;;;;5015247;28;20037;-82
2022/10/01 13:21:47;;;;;;;5.47;3.13;;;;;;;;;;5014949;28;20030;-83
2022/10/01 13:24:25;;;;;;;3.35;2.90;;;;;;;;;;5014302;28;20042;-83
2022/10/01 13:27:11;;;;;;;4.32;3.25;;;;;;;;;;5014376;28;20065;-82
2022/10/01 13:30:00;;;;;;;4.50;3.10;;;;;;;;;;5001139;28;20522;-83
2022/10/01 13:32:28;;;;;;;4.88;3.10;;;;;;;;;;4981748;28;20141;-83
2022/10/01 13:34:55;;;;;;;6.57;3.10;;;;;;;;;;5014853;28;20030;-82
2022/10/01 13:37:29;;;;;;;5.43;3.20;;;;;;;;;;5015389;28;20368;-83
2022/10/01 13:39:56;;;;;;;7.07;2.72;;;;;;;;;;5016226;28;20041;-84
2022/10/01 13:42:24;;;;;;;7.07;3.63;;;;;;;;;;4997237;28;20029;-83
2022/10/01 13:45:01;;;;;;;5.13;3.47;;;;;;;;;;5013944;28;20042;-83
2022/10/01 13:47:27;;;;;;;4.78;3.03;;;;;;;;;;4997291;28;20041;-82
2022/10/01 13:50:04;;;;;;;4.90;3.67;;;;;;;;;;5014813;28;20041;-82
2022/10/01 13:52:31;;;;;;;4.60;2.70;;;;;;;;;;4997087;28;20034;-82
2022/10/01 13:54:59;;;;;;;6.13;2.78;;;;;;;;;;4995599;28;20042;-82
2022/10/01 13:57:27;;;;;;;4.85;3.67;;;;;;;;;;4996535;28;20034;-82
2022/10/01 14:00:06;;;;;;;7.53;5.10;;;;;;;;;;5014325;28;20034;-82
2022/10/01 14:02:36;;;;;;;5.05;3.65;;;;;;;;;;5014297;28;20049;-82
2022/10/01 14:05:24;;;;;;;5.82;3.30;;;;;;;;;;4995885;28;20042;-83
2022/10/01 14:07:58;;;;;;;4.70;2.95;;;;;;;;;;5014116;28;20030;-83
2022/10/01 14:10:32;;;;;;;4.20;3.50;;;;;;;;;;4996885;28;20037;-83
2022/10/01 14:15:58;;;;;;;4.85;3.22;;;;;;;;;;5013764;28;20033;-82
2022/10/01 14:18:37;;;;;;;4.15;3.40;;;;;;;;;;4996539;28;20033;-82
2022/10/01 14:21:06;;;;;;;5.72;3.30;;;;;;;;;;5013814;28;20120;-82
2022/10/01 14:24:04;;;;;;;4.13;2.92;;;;;;;;;;4980118;28;20034;-83
2022/10/01 14:26:56;;;;;;;5.07;3.30;;;;;;;;;;4980309;28;20125;-83
2022/10/01 14:29:53;;;;;;;7.03;3.17;;;;;;;;;;4996277;28;20034;-82
2022/10/01 14:32:56;;;;;;;5.53;3.60;;;;;;;;;;4996421;28;20038;-83
2022/10/01 14:35:35;;;;;;;6.65;4.70;;;;;;;;;;5014405;28;20038;-86
2022/10/01 14:38:09;;;;;;;7.35;4.22;;;;;;;;;;5014124;28;20021;-83
2022/10/01 14:40:42;;;;;;;8.57;5.00;;;;;;;;;;5014384;28;20037;-84
2022/10/01 14:43:20;;;;;;;6.00;4.57;;;;;;;;;;5014312;28;20446;-83
2022/10/01 14:45:49;;;;;;;7.05;4.60;;;;;;;;;;5013424;28;20040;-84
2022/10/01 14:48:15;;;;;;;10.98;5.28;;;;;;;;;;5013625;28;20052;-84
2022/10/01 14:50:46;;;;;;;12.90;6.18;;;;;;;;;;5013499;28;20479;-84
2022/10/01 14:53:16;;;;;;;8.68;6.18;;;;;;;;;;4996325;28;20044;-84
2022/10/01 14:55:42;;;;;;;9.50;6.38;;;;;;;;;;5013181;28;20033;-84
2022/10/01 14:58:20;;;;;;;9.63;5.82;;;;;;;;;;5013632;28;20014;-84
2022/10/01 15:00:49;;;;;;;7.38;5.53;;;;;;;;;;5013999;28;20056;-84
2022/10/01 15:03:15;;;;;;;13.32;7.40;;;;;;;;;;5013996;28;20037;-84
2022/10/01 15:05:42;;;;;;;5.30;3.45;;;;;;;;;;5013383;28;20040;-83
2022/10/01 15:08:34;;;;;;;4.55;2.00;;;;;;;;;;5017678;28;20124;-83
2022/10/01 15:11:03;;;;;;;2.97;1.98;;;;;;;;;;5017431;28;20030;-82
2022/10/01 15:13:34;;;;;;;1.38;1.10;;;;;;;;;;5016550;28;20501;-82
2022/10/01 15:16:01;;;;;;;1.55;1.00;;;;;;;;;;5016809;28;20493;-82
2022/10/01 15:18:27;;;;;;;1.85;1.40;;;;;;;;;;5017311;28;20013;-83